^^
MeteoGriva-Weather Station Historical Data
Daily Summary for November 29, 2020 Units:  Both    English   Metric
Daily Weekly Monthly Yearly Custom
  High: Low: Average:
Temperature: 55.8 °F /  13.2 °C 46.8 °F /  8.2 °C 50.5 °F /  10.3 °C
Dew Point: 53.2 °F /  11.8 °C 41.5 °F /  5.3 °C 46 °F /  7.8 °C
Humidity: 99% 66.1% 85%
Wind Speed: 6.6mph /  10.7km/h - 0.6mph /  1km/h
Wind Gust: 10.7mph /  17.2km/h - -
Wind- - WSW
Pressure: 30.3 in /  1027.4 hPa 29.9 in /  1012.5 hPa -
Precipitation: 0.01 in /  0.2 mm    
Historical Graphs
 
 
Tabular Data for November 29, 2020
Time Temperature Dew Point Pressure Wind Wind Speed Wind Gust Humidity Rainfall Rate (Hourly) solar
00:04 47.7 °F /  8.7 °C 43 °F /  6.1 °C 30in /  1015.6hPa Calm     84.4% 0in /  0.0mm 0 W/m2
00:09 47.3 °F /  8.5 °C 42.8 °F /  6 °C 30in /  1015.6hPa Calm     84.1% 0in /  0.0mm 0 W/m2
00:14 47.1 °F /  8.4 °C 43 °F /  6.1 °C 30in /  1015.6hPa Calm     85.7% 0in /  0.0mm 0 W/m2
00:19 46.9 °F /  8.3 °C 43.9 °F /  6.6 °C 30in /  1015.6hPa Calm     88.8% 0in /  0.0mm 0 W/m2
00:24 46.9 °F /  8.3 °C 44.1 °F /  6.7 °C 30in /  1015.6hPa Calm     89.8% 0in /  0.0mm 0 W/m2
00:29 46.9 °F /  8.3 °C 44.2 °F /  6.8 °C 30in /  1015.6hPa Calm     90% 0in /  0.0mm 0 W/m2
00:34 46.9 °F /  8.3 °C 44.2 °F /  6.8 °C 30in /  1015.6hPa Calm     90.1% 0in /  0.0mm 0 W/m2
00:39 47.1 °F /  8.4 °C 44.6 °F /  7 °C 30in /  1015.2hPa Calm     91% 0in /  0.0mm 0 W/m2
00:44 47.1 °F /  8.4 °C 45 °F /  7.2 °C 30in /  1015.6hPa Calm     92% 0in /  0.0mm 0 W/m2
00:49 47.1 °F /  8.4 °C 45.1 °F /  7.3 °C 30in /  1015.2hPa Calm     92.7% 0in /  0.0mm 0 W/m2
00:54 47.5 °F /  8.6 °C 45.5 °F /  7.5 °C 30in /  1015.2hPa Calm     93% 0in /  0.0mm 0 W/m2
00:59 47.7 °F /  8.7 °C 46 °F /  7.8 °C 30in /  1015.2hPa Calm     93.8% 0in /  0.0mm 0 W/m2
01:04 47.7 °F /  8.7 °C 46 °F /  7.8 °C 30in /  1015.2hPa Calm     94% 0in /  0.0mm 0 W/m2
01:09 47.7 °F /  8.7 °C 46.4 °F /  8 °C 30in /  1015.2hPa Calm     95.7% 0in /  0.0mm 0 W/m2
01:14 47.5 °F /  8.6 °C 46.8 °F /  8.2 °C 30in /  1015.2hPa Calm     97.2% 0in /  0.0mm 0 W/m2
01:19 47.3 °F /  8.5 °C 46.4 °F /  8 °C 30in /  1015.2hPa Calm     96.6% 0in /  0.0mm 0 W/m2
01:24 47.3 °F /  8.5 °C 46.6 °F /  8.1 °C 30in /  1015.2hPa Calm     97% 0in /  0.0mm 0 W/m2
01:29 47.3 °F /  8.5 °C 46.8 °F /  8.2 °C 30in /  1015.2hPa Calm     97.4% 0in /  0.0mm 0 W/m2
01:34 47.3 °F /  8.5 °C 46.8 °F /  8.2 °C 30in /  1015.2hPa Calm     97.9% 0in /  0.0mm 0 W/m2
01:39 47.3 °F /  8.5 °C 46.8 °F /  8.2 °C 30in /  1015.2hPa Calm     97.9% 0in /  0.0mm 0 W/m2
01:44 47.3 °F /  8.5 °C 46.8 °F /  8.2 °C 30in /  1015.2hPa Calm     98% 0in /  0.0mm 0 W/m2
01:49 47.3 °F /  8.5 °C 46.6 °F /  8.1 °C 30in /  1014.9hPa Calm     97.4% 0in /  0.0mm 0 W/m2
01:54 47.3 °F /  8.5 °C 46.2 °F /  7.9 °C 30in /  1014.9hPa Calm     96% 0in /  0.0mm 0 W/m2
01:59 47.3 °F /  8.5 °C 46.2 °F /  7.9 °C 30in /  1014.9hPa Calm     96% 0in /  0.0mm 0 W/m2
02:04 47.3 °F /  8.5 °C 46.4 °F /  8 °C 30in /  1015.2hPa Calm     96.6% 0in /  0.0mm 0 W/m2
02:09 47.3 °F /  8.5 °C 46.6 °F /  8.1 °C 30in /  1014.9hPa Calm     97% 0in /  0.0mm 0 W/m2
02:14 47.3 °F /  8.5 °C 46.4 °F /  8 °C 30in /  1014.9hPa Calm     96.4% 0in /  0.0mm 0 W/m2
02:19 47.1 °F /  8.4 °C 46.4 °F /  8 °C 30in /  1014.9hPa Calm     97.1% 0in /  0.0mm 0 W/m2
02:24 47.1 °F /  8.4 °C 46.8 °F /  8.2 °C 30in /  1014.9hPa Calm     98.7% 0in /  0.0mm 0 W/m2
02:29 47.1 °F /  8.4 °C 46.8 °F /  8.2 °C 30in /  1014.9hPa Calm     98.6% 0in /  0.0mm 0 W/m2
02:34 47.1 °F /  8.4 °C 46.9 °F /  8.3 °C 30in /  1014.9hPa Calm     99% 0in /  0.0mm 0 W/m2
02:39 46.9 °F /  8.3 °C 46.8 °F /  8.2 °C 30in /  1015.2hPa Calm     99% 0in /  0.0mm 0 W/m2
02:44 46.9 °F /  8.3 °C 46.8 °F /  8.2 °C 30in /  1015.2hPa Calm     99% 0in /  0.0mm 0 W/m2
02:49 46.9 °F /  8.3 °C 46.8 °F /  8.2 °C 30in /  1015.2hPa Calm     99% 0in /  0.0mm 0 W/m2
02:54 47.1 °F /  8.4 °C 46.9 °F /  8.3 °C 30in /  1015.2hPa Calm     99% 0in /  0.0mm 0 W/m2
02:59 47.5 °F /  8.6 °C 47.3 °F /  8.5 °C 30in /  1015.2hPa Calm     99% 0in /  0.0mm 0 W/m2
03:04 47.5 °F /  8.6 °C 47.3 °F /  8.5 °C 30in /  1015.2hPa Calm     99% 0in /  0.0mm 0 W/m2
03:09 47.3 °F /  8.5 °C 47.1 °F /  8.4 °C 30in /  1015.2hPa Calm     99% 0in /  0.0mm 0 W/m2
03:14 47.3 °F /  8.5 °C 47.1 °F /  8.4 °C 30in /  1014.9hPa Calm     99% 0in /  0.0mm 0 W/m2
03:19 46.9 °F /  8.3 °C 46.8 °F /  8.2 °C 30in /  1014.9hPa Calm     99% 0in /  0.0mm 0 W/m2
03:24 46.9 °F /  8.3 °C 46.8 °F /  8.2 °C 30in /  1014.9hPa Calm     99% 0in /  0.0mm 0 W/m2
03:29 46.9 °F /  8.3 °C 46.8 °F /  8.2 °C 30in /  1014.6hPa Calm     99% 0in /  0.0mm 0 W/m2
03:34 46.9 °F /  8.3 °C 46.8 °F /  8.2 °C 30in /  1014.9hPa Calm     99% 0in /  0.0mm 0 W/m2
03:39 47.1 °F /  8.4 °C 46.9 °F /  8.3 °C 30in /  1014.9hPa Calm     99% 0in /  0.0mm 0 W/m2
03:44 46.9 °F /  8.3 °C 46.8 °F /  8.2 °C 30in /  1014.6hPa Calm     99% 0in /  0.0mm 0 W/m2
03:49 46.9 °F /  8.3 °C 46.8 °F /  8.2 °C 30in /  1014.6hPa Calm     99% 0in /  0.0mm 0 W/m2
03:54 46.9 °F /  8.3 °C 46.8 °F /  8.2 °C 30in /  1014.6hPa Calm     99% 0in /  0.0mm 0 W/m2
03:59 46.9 °F /  8.3 °C 46.8 °F /  8.2 °C 30in /  1014.6hPa Calm     99% 0in /  0.0mm 0 W/m2
04:04 46.9 °F /  8.3 °C 46.8 °F /  8.2 °C 30in /  1014.6hPa Calm     99% 0in /  0.0mm 0 W/m2
04:09 46.9 °F /  8.3 °C 46.8 °F /  8.2 °C 30in /  1014.6hPa Calm     99% 0in /  0.0mm 0 W/m2
04:14 46.9 °F /  8.3 °C 46.8 °F /  8.2 °C 30in /  1014.6hPa Calm     99% 0in /  0.0mm 0 W/m2
04:19 47.1 °F /  8.4 °C 46.9 °F /  8.3 °C 30in /  1014.6hPa Calm     99% 0in /  0.0mm 0 W/m2
04:24 47.1 °F /  8.4 °C 46.9 °F /  8.3 °C 30in /  1014.6hPa Calm     99% 0in /  0.0mm 0 W/m2
04:29 47.1 °F /  8.4 °C 46.9 °F /  8.3 °C 30in /  1014.2hPa Calm     99% 0in /  0.0mm 0 W/m2
04:34 47.1 °F /  8.4 °C 46.9 °F /  8.3 °C 30in /  1014.2hPa Calm     99% 0in /  0.0mm 0 W/m2
04:39 46.9 °F /  8.3 °C 46.8 °F /  8.2 °C 30in /  1014.6hPa Calm     99% 0in /  0.0mm 0 W/m2
04:44 46.9 °F /  8.3 °C 46.8 °F /  8.2 °C 30in /  1014.6hPa Calm     99% 0in /  0.0mm 0 W/m2
04:49 46.9 °F /  8.3 °C 46.8 °F /  8.2 °C 30in /  1014.2hPa Calm     99% 0in /  0.0mm 0 W/m2
04:54 47.1 °F /  8.4 °C 46.9 °F /  8.3 °C 30in /  1014.2hPa Calm     99% 0in /  0.0mm 0 W/m2
04:59 47.3 °F /  8.5 °C 47.1 °F /  8.4 °C 30in /  1014.2hPa Calm     99% 0in /  0.0mm 0 W/m2
05:04 47.3 °F /  8.5 °C 47.1 °F /  8.4 °C 30in /  1014.2hPa Calm     99% 0in /  0.0mm 0 W/m2
05:09 47.5 °F /  8.6 °C 47.1 °F /  8.4 °C 30in /  1014.2hPa Calm     99% 0in /  0.0mm 0 W/m2
05:14 47.5 °F /  8.6 °C 47.3 °F /  8.5 °C 30in /  1014.2hPa Calm     99% 0in /  0.0mm 0 W/m2
05:19 47.5 °F /  8.6 °C 47.3 °F /  8.5 °C 30in /  1014.2hPa Calm     99% 0in /  0.0mm 0 W/m2
05:24 47.5 °F /  8.6 °C 47.3 °F /  8.5 °C 30in /  1014.2hPa Calm     99% 0in /  0.0mm 0 W/m2
05:29 47.5 °F /  8.6 °C 47.3 °F /  8.5 °C 30in /  1014.2hPa Calm     99% 0in /  0.0mm 0 W/m2
05:34 47.5 °F /  8.6 °C 47.3 °F /  8.5 °C 30in /  1014.2hPa Calm     99% 0in /  0.0mm 0 W/m2
05:39 47.1 °F /  8.4 °C 46.9 °F /  8.3 °C 30in /  1014.2hPa Calm     99% 0in /  0.0mm 0 W/m2
05:44 47.1 °F /  8.4 °C 46.9 °F /  8.3 °C 30in /  1014.2hPa Calm     99% 0in /  0.0mm 0 W/m2
05:49 47.1 °F /  8.4 °C 46.9 °F /  8.3 °C 30in /  1014.2hPa Calm     99% 0in /  0.0mm 0 W/m2
05:54 47.1 °F /  8.4 °C 46.9 °F /  8.3 °C 30in /  1014.2hPa Calm     99% 0in /  0.0mm 0 W/m2
05:59 47.7 °F /  8.7 °C 47.5 °F /  8.6 °C 29.9in /  1013.9hPa Calm     99% 0in /  0.0mm 0 W/m2
06:04 47.7 °F /  8.7 °C 47.5 °F /  8.6 °C 30in /  1014.2hPa Calm     99% 0in /  0.0mm 0 W/m2
06:09 47.7 °F /  8.7 °C 47.5 °F /  8.6 °C 30in /  1014.2hPa Calm     99% 0in /  0.0mm 0 W/m2
06:14 47.7 °F /  8.7 °C 47.5 °F /  8.6 °C 30in /  1014.2hPa Calm     99% 0in /  0.0mm 0 W/m2
06:19 47.3 °F /  8.5 °C 47.1 °F /  8.4 °C 30in /  1014.2hPa Calm     99% 0in /  0.0mm 0 W/m2
06:24 47.3 °F /  8.5 °C 47.1 °F /  8.4 °C 30in /  1014.2hPa Calm     99% 0in /  0.0mm 0 W/m2
06:29 47.3 °F /  8.5 °C 47.1 °F /  8.4 °C 29.9in /  1013.9hPa Calm     99% 0in /  0.0mm 0 W/m2
06:34 47.1 °F /  8.4 °C 46.9 °F /  8.3 °C 29.9in /  1013.9hPa Calm     99% 0in /  0.0mm 0 W/m2
06:39 47.3 °F /  8.5 °C 47.1 °F /  8.4 °C 29.9in /  1013.9hPa Calm     99% 0in /  0.0mm 0 W/m2
06:44 47.3 °F /  8.5 °C 46.8 °F /  8.2 °C 29.9in /  1013.9hPa Calm     98.1% 0in /  0.0mm 0 W/m2
06:49 47.3 °F /  8.5 °C 46.8 °F /  8.2 °C 30in /  1014.2hPa Calm     98% 0in /  0.0mm 0 W/m2
06:54 47.3 °F /  8.5 °C 46.6 °F /  8.1 °C 30in /  1014.2hPa Calm     97.1% 0in /  0.0mm 0 W/m2
06:59 48 °F /  8.9 °C 46.9 °F /  8.3 °C 29.9in /  1013.9hPa Calm     96.2% 0in /  0.0mm 0 W/m2
07:04 48.2 °F /  9 °C 46.8 °F /  8.2 °C 29.9in /  1013.9hPa Calm     94.9% 0in /  0.0mm 0 W/m2
07:09 48.2 °F /  9 °C 46.6 °F /  8.1 °C 29.9in /  1013.9hPa Calm     94.3% 0in /  0.0mm 0 W/m2
07:14 48.2 °F /  9 °C 46.8 °F /  8.2 °C 29.9in /  1013.9hPa Calm     94.9% 0in /  0.0mm 0 W/m2
07:19 48.7 °F /  9.3 °C 47.1 °F /  8.4 °C 29.9in /  1013.9hPa Calm     94.3% 0in /  0.0mm 0 W/m2
07:24 48.7 °F /  9.3 °C 47.1 °F /  8.4 °C 29.9in /  1013.9hPa Calm     94% 0in /  0.0mm 0 W/m2
07:29 48.7 °F /  9.3 °C 47.1 °F /  8.4 °C 29.9in /  1013.9hPa Calm     94% 0in /  0.0mm 0 W/m2
07:34 48.7 °F /  9.3 °C 46.9 °F /  8.3 °C 29.9in /  1013.9hPa Calm     93.5% 0in /  0.0mm 0 W/m2
07:39 47.8 °F /  8.8 °C 46.9 °F /  8.3 °C 29.9in /  1013.9hPa Calm     96.6% 0in /  0.0mm 0 W/m2
07:44 47.7 °F /  8.7 °C 46.9 °F /  8.3 °C 30in /  1014.2hPa Calm     97.4% 0in /  0.0mm 0 W/m2
07:49 47.7 °F /  8.7 °C 47.1 °F /  8.4 °C 30in /  1014.2hPa Calm     98% 0in /  0.0mm 3 W/m2
07:54 47.5 °F /  8.6 °C 46.9 °F /  8.3 °C 30in /  1014.2hPa Calm     98% 0in /  0.0mm 5 W/m2
07:59 47.1 °F /  8.4 °C 46.6 °F /  8.1 °C 30in /  1014.2hPa Calm     98% 0in /  0.0mm 9 W/m2
08:04 46.8 °F /  8.2 °C 46 °F /  7.8 °C 30in /  1014.2hPa Calm     97.6% 0in /  0.0mm 12 W/m2
08:09 46.9 °F /  8.3 °C 46 °F /  7.8 °C 30in /  1014.2hPa Calm     96.4% 0in /  0.0mm 17 W/m2
08:14 46.9 °F /  8.3 °C 46 °F /  7.8 °C 30in /  1014.2hPa Calm     96.3% 0in /  0.0mm 25 W/m2
08:19 47.7 °F /  8.7 °C 46.6 °F /  8.1 °C 30in /  1014.2hPa Calm     96% 0in /  0.0mm 27 W/m2
08:24 47.8 °F /  8.8 °C 46.8 °F /  8.2 °C 30in /  1014.2hPa Calm     96% 0in /  0.0mm 29 W/m2
08:29 47.7 °F /  8.7 °C 46.6 °F /  8.1 °C 30in /  1014.2hPa Calm     96% 0in /  0.0mm 30 W/m2
08:34 47.8 °F /  8.8 °C 46.8 °F /  8.2 °C 30in /  1014.2hPa Calm     96% 0in /  0.0mm 33 W/m2
08:39 48.2 °F /  9 °C 46.8 °F /  8.2 °C 30in /  1014.2hPa ESE 0.4mph /  0.6km/h 4.9mph /  7.9km/h 94.8% 0in /  0.0mm 41 W/m2
08:44 48.4 °F /  9.1 °C 46.8 °F /  8.2 °C 30in /  1014.2hPa Calm     94% 0in /  0.0mm 47 W/m2
08:49 48.6 °F /  9.2 °C 46.8 °F /  8.2 °C 30in /  1014.2hPa Calm     93.8% 0in /  0.0mm 60 W/m2
08:54 48.6 °F /  9.2 °C 46.2 °F /  7.9 °C 30in /  1014.6hPa Calm     91.4% 0in /  0.0mm 60 W/m2
08:59 48.9 °F /  9.4 °C 46 °F /  7.8 °C 30in /  1014.6hPa Calm     90% 0in /  0.0mm 67 W/m2
09:04 49.3 °F /  9.6 °C 46.2 °F /  7.9 °C 30in /  1014.6hPa Calm     89.3% 0in /  0.0mm 73 W/m2
09:09 49.3 °F /  9.6 °C 46.2 °F /  7.9 °C 30in /  1014.6hPa Calm     89% 0in /  0.0mm 72 W/m2
09:14 49.5 °F /  9.7 °C 46.4 °F /  8 °C 30in /  1014.6hPa Calm     89% 0in /  0.0mm 66 W/m2
09:19 50.2 °F /  10.1 °C 46.8 °F /  8.2 °C 30in /  1014.6hPa Calm   2.5mph /  4km/h 88.2% 0in /  0.0mm 90 W/m2
09:24 50.4 °F /  10.2 °C 46.9 °F /  8.3 °C 30in /  1014.6hPa Calm     88% 0in /  0.0mm 96 W/m2
09:29 50.4 °F /  10.2 °C 47.1 °F /  8.4 °C 30in /  1014.6hPa Calm     88.4% 0in /  0.0mm 91 W/m2
09:34 50.4 °F /  10.2 °C 47.1 °F /  8.4 °C 30in /  1014.9hPa Calm     88.2% 0in /  0.0mm 88 W/m2
09:39 50.7 °F /  10.4 °C 47.3 °F /  8.5 °C 30in /  1014.9hPa Calm     88% 0in /  0.0mm 88 W/m2
09:44 50.9 °F /  10.5 °C 47.5 °F /  8.6 °C 30in /  1014.9hPa Calm   2.5mph /  4km/h 88% 0in /  0.0mm 86 W/m2
09:49 50.9 °F /  10.5 °C 47.5 °F /  8.6 °C 30in /  1014.6hPa Calm   2.5mph /  4km/h 88.2% 0in /  0.0mm 86 W/m2
09:54 50.9 °F /  10.5 °C 47.3 °F /  8.5 °C 30in /  1014.6hPa Calm     87.7% 0.07in /  1.8mm 74 W/m2
09:59 51.3 °F /  10.7 °C 47.7 °F /  8.7 °C 30in /  1014.6hPa Calm     87.8% 0.07in /  1.8mm 85 W/m2
10:04 51.3 °F /  10.7 °C 47.8 °F /  8.8 °C 30in /  1014.6hPa Calm     88% 0in /  0.0mm 105 W/m2
10:09 51.4 °F /  10.8 °C 47.7 °F /  8.7 °C 30in /  1014.6hPa Calm     86.9% 0in /  0.0mm 109 W/m2
10:14 51.4 °F /  10.8 °C 47.7 °F /  8.7 °C 30in /  1014.6hPa Calm     86.7% 0in /  0.0mm 105 W/m2
10:18 51.8 °F /  11 °C 48 °F /  8.9 °C 30in /  1014.6hPa Calm     87% 0in /  0.0mm 105 W/m2
10:23 52 °F /  11.1 °C 48.6 °F /  9.2 °C 30in /  1014.6hPa Calm     88% 0in /  0.0mm 105 W/m2
10:29 52 °F /  11.1 °C 48.7 °F /  9.3 °C 30in /  1014.6hPa Calm     88.3% 0in /  0.0mm 90 W/m2
10:34 52 °F /  11.1 °C 48.6 °F /  9.2 °C 30in /  1014.6hPa Calm     88% 0in /  0.0mm 102 W/m2
10:39 52.3 °F /  11.3 °C 48.9 °F /  9.4 °C 30in /  1014.6hPa Calm     88% 0in /  0.0mm 130 W/m2
10:44 52.7 °F /  11.5 °C 48.7 °F /  9.3 °C 30in /  1014.6hPa Calm     86% 0in /  0.0mm 132 W/m2
10:49 52.9 °F /  11.6 °C 48.7 °F /  9.3 °C 30in /  1014.6hPa Calm     85.4% 0in /  0.0mm 109 W/m2
10:54 53.1 °F /  11.7 °C 49.6 °F /  9.8 °C 30in /  1014.6hPa Calm     88% 0in /  0.0mm 92 W/m2
10:59 52.7 °F /  11.5 °C 49.5 °F /  9.7 °C 30in /  1014.2hPa Calm     88.5% 0in /  0.0mm 104 W/m2
11:04 52.5 °F /  11.4 °C 49.3 °F /  9.6 °C 30in /  1014.2hPa Calm     88.4% 0in /  0.0mm 165 W/m2
11:08 52.7 °F /  11.5 °C 48.6 °F /  9.2 °C 30in /  1014.2hPa Calm     85.8% 0in /  0.0mm 175 W/m2
11:14 53.1 °F /  11.7 °C 48.6 °F /  9.2 °C 29.9in /  1013.9hPa Calm     84.2% 0in /  0.0mm 182 W/m2
11:19 54.3 °F /  12.4 °C 49.3 °F /  9.6 °C 30in /  1014.2hPa Calm     83.2% 0in /  0.0mm 179 W/m2
11:22 55.8 °F /  13.2 °C 51.3 °F /  10.7 °C 29.9in /  1013.9hPa Calm     85% 0in /  0.0mm 121 W/m2
11:29 55.2 °F /  12.9 °C 51.1 °F /  10.6 °C 29.9in /  1013.9hPa Calm     86% 0in /  0.0mm 116 W/m2
11:33 55 °F /  12.8 °C 50.9 °F /  10.5 °C 29.9in /  1013.9hPa Calm     86% 0in /  0.0mm 150 W/m2
11:39 54.7 °F /  12.6 °C 50.7 °F /  10.4 °C 29.9in /  1013.5hPa Calm     86.6% 0in /  0.0mm 153 W/m2
11:44 54.1 °F /  12.3 °C 50.4 °F /  10.2 °C 29.9in /  1013.5hPa Calm     87% 0in /  0.0mm 158 W/m2
11:48 54.1 °F /  12.3 °C 50.4 °F /  10.2 °C 29.9in /  1013.5hPa Calm     86.7% 0in /  0.0mm 148 W/m2
11:53 54.3 °F /  12.4 °C 50.7 °F /  10.4 °C 29.9in /  1013.5hPa Calm     87.5% 0in /  0.0mm 146 W/m2
11:59 54.3 °F /  12.4 °C 51.4 °F /  10.8 °C 29.9in /  1013.5hPa Calm     89.5% 0in /  0.0mm 149 W/m2
12:04 54.3 °F /  12.4 °C 51.6 °F /  10.9 °C 29.9in /  1013.5hPa Calm     90.4% 0in /  0.0mm 154 W/m2
12:08 54.3 °F /  12.4 °C 51.3 °F /  10.7 °C 29.9in /  1013.2hPa SE 0.2mph /  0.4km/h 2.5mph /  4km/h 89.8% 0in /  0.0mm 168 W/m2
12:14 54.5 °F /  12.5 °C 50.7 °F /  10.4 °C 29.9in /  1013.2hPa Calm     87.3% 0in /  0.0mm 148 W/m2
12:19 54.5 °F /  12.5 °C 51.3 °F /  10.7 °C 29.9in /  1013.2hPa Calm     89.2% 0in /  0.0mm 117 W/m2
12:24 54.1 °F /  12.3 °C 51.8 °F /  11 °C 29.9in /  1012.9hPa Calm     92% 0in /  0.0mm 77 W/m2
12:29 54.1 °F /  12.3 °C 52 °F /  11.1 °C 29.9in /  1013.2hPa Calm     92.5% 0in /  0.0mm 73 W/m2
12:32 54.1 °F /  12.3 °C 52.2 °F /  11.2 °C 29.9in /  1013.2hPa Calm     93% 0in /  0.0mm 57 W/m2
12:39 54 °F /  12.2 °C 52.2 °F /  11.2 °C 29.9in /  1012.9hPa Calm     94.3% 0in /  0.0mm 61 W/m2
12:44 53.6 °F /  12 °C 52.2 °F /  11.2 °C 29.9in /  1012.9hPa Calm     94.7% 0in /  0.0mm 79 W/m2
12:48 53.8 °F /  12.1 °C 52.2 °F /  11.2 °C 29.9in /  1012.9hPa Calm     94% 0in /  0.0mm 90 W/m2
12:54 53.8 °F /  12.1 °C 52.3 °F /  11.3 °C 29.9in /  1012.9hPa Calm     95.2% 0in /  0.0mm 85 W/m2
12:59 53.6 °F /  12 °C 52.3 °F /  11.3 °C 29.9in /  1012.9hPa Calm     95.2% 0in /  0.0mm 65 W/m2
13:03 53.6 °F /  12 °C 52.2 °F /  11.2 °C 29.9in /  1012.9hPa Calm     95% 0in /  0.0mm 61 W/m2
13:09 53.4 °F /  11.9 °C 52.2 °F /  11.2 °C 29.9in /  1012.9hPa Calm     95.3% 0in /  0.0mm 79 W/m2
13:13 53.4 °F /  11.9 °C 52.5 °F /  11.4 °C 29.9in /  1012.9hPa Calm     96.8% 0in /  0.0mm 78 W/m2
13:17 53.2 °F /  11.8 °C 52 °F /  11.1 °C 29.9in /  1012.5hPa Calm     95.7% 0in /  0.0mm 83 W/m2
14:44 55.8 °F /  13.2 °C 52.9 °F /  11.6 °C 29.9in /  1013.5hPa Calm     90% 0in /  0.0mm 193 W/m2
14:49 55.8 °F /  13.2 °C 53.2 °F /  11.8 °C 29.9in /  1013.5hPa Calm     90.9% 0in /  0.0mm 206 W/m2
14:54 55.8 °F /  13.2 °C 52.9 °F /  11.6 °C 29.9in /  1013.5hPa Calm   2.5mph /  4km/h 89.9% 0in /  0.0mm 175 W/m2
14:59 55.8 °F /  13.2 °C 53.1 °F /  11.7 °C 29.9in /  1013.2hPa Calm     90.8% 0in /  0.0mm 101 W/m2
15:04 55 °F /  12.8 °C 52.7 °F /  11.5 °C 29.9in /  1013.2hPa SE 0.4mph /  0.6km/h 4.9mph /  7.9km/h 91.4% 0in /  0.0mm 87 W/m2
15:09 55 °F /  12.8 °C 52.7 °F /  11.5 °C 29.9in /  1013.5hPa Calm     92% 0in /  0.0mm 79 W/m2
15:14 55 °F /  12.8 °C 52.7 °F /  11.5 °C 29.9in /  1013.5hPa Calm     92% 0in /  0.0mm 71 W/m2
15:22 55 °F /  12.8 °C 52.5 °F /  11.4 °C 29.9in /  1013.5hPa Calm     91.5% 0in /  0.0mm 98 W/m2
15:29 54.1 °F /  12.3 °C 44.4 °F /  6.9 °C 30.3in /  1027.4hPa East 0.2mph /  0.4km/h 2.7mph /  4.3km/h 69.8% 0in /  0.0mm 116 W/m2
15:34 54.1 °F /  12.3 °C 44.6 °F /  7 °C 30.3in /  1027.4hPa East 0.9mph /  1.4km/h 2.7mph /  4.3km/h 69.8% 0in /  0.0mm 102 W/m2
15:39 54.1 °F /  12.3 °C 44.6 °F /  7 °C 30.3in /  1027.4hPa SSW 0.2mph /  0.3km/h 2.5mph /  4km/h 70% 0in /  0.0mm 75 W/m2
15:44 54 °F /  12.2 °C 44.2 °F /  6.8 °C 30.3in /  1027.4hPa South 0.6mph /  0.9km/h 3.6mph /  5.8km/h 69.4% 0in /  0.0mm 69 W/m2
15:49 54 °F /  12.2 °C 44.1 °F /  6.7 °C 30.3in /  1027.4hPa ENE 0.2mph /  0.3km/h 2mph /  3.2km/h 69% 0in /  0.0mm 68 W/m2
15:54 54 °F /  12.2 °C 43.5 °F /  6.4 °C 30.3in /  1027.4hPa ESE 1.4mph /  2.2km/h 2.9mph /  4.7km/h 67.7% 0in /  0.0mm 61 W/m2
15:59 54 °F /  12.2 °C 44.2 °F /  6.8 °C 30.1in /  1018.3hPa SE 1.6mph /  2.6km/h 4mph /  6.4km/h 69.6% 0in /  0.0mm 49 W/m2
16:04 54 °F /  12.2 °C 44.4 °F /  6.9 °C 30.1in /  1018.3hPa ESE 1.3mph /  2.1km/h 3.4mph /  5.5km/h 70.2% 0in /  0.0mm 40 W/m2
16:09 53.6 °F /  12 °C 44.4 °F /  6.9 °C 30.1in /  1018.3hPa SSE 1.1mph /  1.7km/h 4.3mph /  6.9km/h 71% 0in /  0.0mm 38 W/m2
16:14 53.6 °F /  12 °C 44.2 °F /  6.8 °C 30.1in /  1018.3hPa SSE 0.1mph /  0.2km/h 3.6mph /  5.8km/h 71% 0in /  0.0mm 38 W/m2
16:24 53.2 °F /  11.8 °C 44.6 °F /  7 °C 30.1in /  1018.3hPa ESE 0.4mph /  0.6km/h 3.4mph /  5.5km/h 72% 0in /  0.0mm 28 W/m2
16:29 53.2 °F /  11.8 °C 44.4 °F /  6.9 °C 30.1in /  1018.3hPa Calm   2.2mph /  3.5km/h 72% 0in /  0.0mm 24 W/m2
16:34 53.2 °F /  11.8 °C 44.4 °F /  6.9 °C 30.1in /  1018.3hPa Calm   1.6mph /  2.6km/h 72% 0in /  0.0mm 26 W/m2
16:39 53.1 °F /  11.7 °C 44.2 °F /  6.8 °C 30.1in /  1018.3hPa Calm     72% 0in /  0.0mm 14 W/m2
16:44 53.1 °F /  11.7 °C 44.4 °F /  6.9 °C 30.1in /  1018.3hPa Calm     72.4% 0in /  0.0mm 10 W/m2
16:49 52.9 °F /  11.6 °C 44.4 °F /  6.9 °C 30.1in /  1018.3hPa Calm     73% 0in /  0.0mm 7 W/m2
16:54 52.9 °F /  11.6 °C 44.2 °F /  6.8 °C 30.1in /  1018.3hPa Calm     73% 0in /  0.0mm 5 W/m2
16:59 52.7 °F /  11.5 °C 44.2 °F /  6.8 °C 30.1in /  1018.6hPa Calm     73% 0in /  0.0mm 3 W/m2
17:04 52.5 °F /  11.4 °C 44.4 °F /  6.9 °C 30.1in /  1018.6hPa Calm     73.7% 0in /  0.0mm 3 W/m2
17:09 52.5 °F /  11.4 °C 44.4 °F /  6.9 °C 30.1in /  1018.3hPa North 1.4mph /  2.3km/h 2.5mph /  4km/h 74% 0in /  0.0mm 0 W/m2
17:14 52.5 °F /  11.4 °C 44.4 °F /  6.9 °C 30.1in /  1018.3hPa North 1.3mph /  2.1km/h 3.1mph /  5km/h 74% 0in /  0.0mm 0 W/m2
17:19 52.5 °F /  11.4 °C 44.4 °F /  6.9 °C 30.1in /  1018.3hPa North 1.2mph /  1.9km/h 2.2mph /  3.5km/h 74% 0in /  0.0mm 0 W/m2
17:24 52.3 °F /  11.3 °C 44.6 °F /  7 °C 30.1in /  1018.3hPa North 1.1mph /  1.8km/h 2.2mph /  3.5km/h 74.7% 0in /  0.0mm 0 W/m2
17:29 52.3 °F /  11.3 °C 44.6 °F /  7 °C 30.1in /  1018.3hPa NNW 1.1mph /  1.7km/h 2.5mph /  4km/h 74.8% 0in /  0.0mm 0 W/m2
17:34 52.3 °F /  11.3 °C 44.6 °F /  7 °C 30.1in /  1018.3hPa North 0.6mph /  1km/h 2.5mph /  4km/h 75% 0in /  0.0mm 0 W/m2
17:39 52.2 °F /  11.2 °C 44.4 °F /  6.9 °C 30.1in /  1018.3hPa NNW 0.2mph /  0.4km/h 1.8mph /  2.9km/h 75% 0in /  0.0mm 0 W/m2
17:44 52.2 °F /  11.2 °C 44.4 °F /  6.9 °C 30.1in /  1018.3hPa NNW 0.6mph /  1km/h 2mph /  3.2km/h 75% 0in /  0.0mm 0 W/m2
17:49 52.2 °F /  11.2 °C 44.4 °F /  6.9 °C 30.1in /  1018.6hPa NNW 0.6mph /  0.9km/h 2.2mph /  3.5km/h 75% 0in /  0.0mm 0 W/m2
17:54 52 °F /  11.1 °C 44.1 °F /  6.7 °C 30.1in /  1018.6hPa North 0.7mph /  1.1km/h 2.9mph /  4.7km/h 74.7% 0in /  0.0mm 0 W/m2
17:59 52 °F /  11.1 °C 43.9 °F /  6.6 °C 30.1in /  1018.6hPa NNW 0.4mph /  0.6km/h 2.9mph /  4.7km/h 73.9% 0in /  0.0mm 0 W/m2
18:04 52 °F /  11.1 °C 43.3 °F /  6.3 °C 30.1in /  1018.6hPa NNW 1.4mph /  2.2km/h 3.1mph /  5km/h 72.3% 0in /  0.0mm 0 W/m2
18:09 52 °F /  11.1 °C 43 °F /  6.1 °C 30.1in /  1018.6hPa NNW 0.6mph /  1km/h 3.1mph /  5km/h 71.5% 0in /  0.0mm 0 W/m2
18:14 52.2 °F /  11.2 °C 42.6 °F /  5.9 °C 30.1in /  1018.6hPa NW 1mph /  1.6km/h 3.1mph /  5km/h 70.3% 0in /  0.0mm 0 W/m2
18:19 52.2 °F /  11.2 °C 42.6 °F /  5.9 °C 30.1in /  1018.6hPa NNW 0.4mph /  0.6km/h 2.5mph /  4km/h 70% 0in /  0.0mm 0 W/m2
18:24 52.2 °F /  11.2 °C 42.3 °F /  5.7 °C 30.1in /  1018.6hPa NW 1.2mph /  2km/h 3.4mph /  5.5km/h 68.7% 0in /  0.0mm 0 W/m2
18:29 52.3 °F /  11.3 °C 41.7 °F /  5.4 °C 30.1in /  1018.6hPa NW 2mph /  3.2km/h 3.8mph /  6.1km/h 66.9% 0in /  0.0mm 0 W/m2
18:34 52.5 °F /  11.4 °C 41.5 °F /  5.3 °C 30.1in /  1018.6hPa WNW 1.8mph /  2.9km/h 3.8mph /  6.1km/h 66.1% 0in /  0.0mm 0 W/m2
18:39 52.7 °F /  11.5 °C 42.3 °F /  5.7 °C 30.1in /  1018.6hPa NW 0.3mph /  0.5km/h 3.1mph /  5km/h 67.4% 0in /  0.0mm 0 W/m2
18:44 52.9 °F /  11.6 °C 42.3 °F /  5.7 °C 30.1in /  1018.6hPa Calm   2mph /  3.2km/h 67% 0in /  0.0mm 0 W/m2
18:49 52.9 °F /  11.6 °C 42.6 °F /  5.9 °C 30.1in /  1018.6hPa NW 1.4mph /  2.2km/h 3.1mph /  5km/h 67.8% 0in /  0.0mm 0 W/m2
18:54 53.1 °F /  11.7 °C 42.4 °F /  5.8 °C 30.1in /  1018.6hPa NW 0.9mph /  1.4km/h 3.1mph /  5km/h 67.4% 0in /  0.0mm 0 W/m2
18:59 52.9 °F /  11.6 °C 42.6 °F /  5.9 °C 30.1in /  1018.6hPa NW 1.4mph /  2.3km/h 3.1mph /  5km/h 68% 0in /  0.0mm 0 W/m2
19:04 52.9 °F /  11.6 °C 42.6 °F /  5.9 °C 30.1in /  1018.6hPa NW 0.7mph /  1.2km/h 2.5mph /  4km/h 68% 0in /  0.0mm 0 W/m2
19:09 52.9 °F /  11.6 °C 42.6 °F /  5.9 °C 30.1in /  1018.6hPa NNE 0.9mph /  1.4km/h 3.4mph /  5.5km/h 68% 0in /  0.0mm 0 W/m2
19:14 52.7 °F /  11.5 °C 42.8 °F /  6 °C 30.1in /  1018.6hPa North 3mph /  4.8km/h 4.9mph /  7.9km/h 69.2% 0in /  0.0mm 0 W/m2
19:19 52.2 °F /  11.2 °C 42.6 °F /  5.9 °C 30.1in /  1018.6hPa NNW 2.2mph /  3.5km/h 4.9mph /  7.9km/h 70% 0in /  0.0mm 0 W/m2
19:24 52.2 °F /  11.2 °C 42.6 °F /  5.9 °C 30.1in /  1018.6hPa NW 1.5mph /  2.4km/h 3.6mph /  5.8km/h 70% 0in /  0.0mm 0 W/m2
19:29 52.2 °F /  11.2 °C 42.3 °F /  5.7 °C 30.1in /  1018.6hPa North 1.2mph /  1.9km/h 3.4mph /  5.5km/h 68.8% 0in /  0.0mm 0 W/m2
19:34 52.2 °F /  11.2 °C 42.3 °F /  5.7 °C 30.1in /  1018.6hPa North 1.1mph /  1.8km/h 2.2mph /  3.5km/h 69% 0in /  0.0mm 0 W/m2
19:39 52.2 °F /  11.2 °C 42.1 °F /  5.6 °C 30.1in /  1018.6hPa North 1.5mph /  2.4km/h 3.4mph /  5.5km/h 68.6% 0in /  0.0mm 0 W/m2
19:44 52.2 °F /  11.2 °C 42.3 °F /  5.7 °C 30.1in /  1018.6hPa NNW 1.6mph /  2.6km/h 3.6mph /  5.8km/h 69% 0in /  0.0mm 0 W/m2
19:49 52.3 °F /  11.3 °C 42.4 °F /  5.8 °C 30.1in /  1018.6hPa North 1.1mph /  1.7km/h 3.6mph /  5.8km/h 69% 0in /  0.0mm 0 W/m2
19:54 52.2 °F /  11.2 °C 42.3 °F /  5.7 °C 30.1in /  1018.6hPa NNW 1.1mph /  1.8km/h 2.9mph /  4.7km/h 69% 0in /  0.0mm 0 W/m2
19:59 52.2 °F /  11.2 °C 42.3 °F /  5.7 °C 30.1in /  1018.6hPa North 1.1mph /  1.7km/h 3.1mph /  5km/h 69% 0in /  0.0mm 0 W/m2
20:04 52.2 °F /  11.2 °C 42.3 °F /  5.7 °C 30.1in /  1018.6hPa North 0.8mph /  1.3km/h 2.9mph /  4.7km/h 69% 0in /  0.0mm 0 W/m2
20:09 52.2 °F /  11.2 °C 42.3 °F /  5.7 °C 30.1in /  1018.6hPa NNW 0.6mph /  1km/h 1.8mph /  2.9km/h 69% 0in /  0.0mm 0 W/m2
20:14 52.2 °F /  11.2 °C 42.3 °F /  5.7 °C 30.1in /  1018.6hPa NW 0.2mph /  0.3km/h 1.8mph /  2.9km/h 69% 0in /  0.0mm 0 W/m2
20:19 52.2 °F /  11.2 °C 42.3 °F /  5.7 °C 30.1in /  1018.6hPa NNW 0.6mph /  0.9km/h 2mph /  3.2km/h 68.8% 0in /  0.0mm 0 W/m2
20:24 52.2 °F /  11.2 °C 42.3 °F /  5.7 °C 30.1in /  1018.6hPa NNW 0.1mph /  0.1km/h 2mph /  3.2km/h 69% 0in /  0.0mm 0 W/m2
20:29 52.2 °F /  11.2 °C 42.3 °F /  5.7 °C 30.1in /  1018.6hPa NNW 0.9mph /  1.4km/h 2.2mph /  3.5km/h 69% 0in /  0.0mm 0 W/m2
20:34 52.2 °F /  11.2 °C 42.3 °F /  5.7 °C 30.1in /  1018.6hPa NNW 1mph /  1.6km/h 2.5mph /  4km/h 69% 0in /  0.0mm 0 W/m2
20:39 52.2 °F /  11.2 °C 42.4 °F /  5.8 °C 30.1in /  1018.6hPa NNW 0.1mph /  0.2km/h 2.2mph /  3.5km/h 69.2% 0in /  0.0mm 0 W/m2
20:44 52.2 °F /  11.2 °C 42.4 °F /  5.8 °C 30.1in /  1018.6hPa North 0.2mph /  0.3km/h 1.6mph /  2.6km/h 69.5% 0in /  0.0mm 0 W/m2
20:49 52.2 °F /  11.2 °C 42.6 °F /  5.9 °C 30.1in /  1018.6hPa Calm   1.3mph /  2.1km/h 69.9% 0in /  0.0mm 0 W/m2
20:54 52.2 °F /  11.2 °C 42.4 °F /  5.8 °C 30.1in /  1018.6hPa Calm   1.1mph /  1.8km/h 69.6% 0in /  0.0mm 0 W/m2
20:59 52.2 °F /  11.2 °C 42.3 °F /  5.7 °C 30.1in /  1019.0hPa Calm     69% 0in /  0.0mm 0 W/m2
21:04 52.2 °F /  11.2 °C 42.3 °F /  5.7 °C 30.1in /  1019.0hPa NNW 0.1mph /  0.2km/h 1.6mph /  2.6km/h 69% 0in /  0.0mm 0 W/m2
21:09 52.2 °F /  11.2 °C 42.4 °F /  5.8 °C 30.1in /  1019.0hPa North 1.3mph /  2.1km/h 2.5mph /  4km/h 69.2% 0in /  0.0mm 0 W/m2
21:14 52.3 °F /  11.3 °C 42.4 °F /  5.8 °C 30.1in /  1019.0hPa North 2.2mph /  3.6km/h 4mph /  6.4km/h 69% 0in /  0.0mm 0 W/m2
21:19 52.3 °F /  11.3 °C 42.3 °F /  5.7 °C 30.1in /  1019.0hPa North 2.2mph /  3.5km/h 4mph /  6.4km/h 68.7% 0in /  0.0mm 0 W/m2
21:24 52.5 °F /  11.4 °C 42.4 °F /  5.8 °C 30.1in /  1019.0hPa NNW 1.7mph /  2.8km/h 3.8mph /  6.1km/h 68.9% 0in /  0.0mm 0 W/m2
21:29 52.5 °F /  11.4 °C 42.6 °F /  5.9 °C 30.1in /  1019.0hPa North 2.1mph /  3.3km/h 4.5mph /  7.2km/h 69% 0in /  0.0mm 0 W/m2
21:34 52.3 °F /  11.3 °C 42.4 °F /  5.8 °C 30.1in /  1019.0hPa North 1.7mph /  2.8km/h 3.4mph /  5.5km/h 69% 0in /  0.0mm 0 W/m2
21:39 52.3 °F /  11.3 °C 42.6 °F /  5.9 °C 30.1in /  1018.6hPa NNW 1.6mph /  2.5km/h 3.4mph /  5.5km/h 69.6% 0in /  0.0mm 0 W/m2
21:44 52.3 °F /  11.3 °C 42.4 °F /  5.8 °C 30.1in /  1018.6hPa North 2.4mph /  3.9km/h 4.9mph /  7.9km/h 69.2% 0in /  0.0mm 0 W/m2
21:49 52.3 °F /  11.3 °C 42.4 °F /  5.8 °C 30.1in /  1018.6hPa North 2.8mph /  4.5km/h 4.9mph /  7.9km/h 69% 0in /  0.0mm 0 W/m2
21:54 52.3 °F /  11.3 °C 42.4 °F /  5.8 °C 30.1in /  1018.6hPa North 1.1mph /  1.7km/h 4.3mph /  6.9km/h 69% 0in /  0.0mm 0 W/m2
21:59 52.3 °F /  11.3 °C 42.4 °F /  5.8 °C 30.1in /  1018.6hPa North 1.8mph /  2.9km/h 3.8mph /  6.1km/h 69% 0in /  0.0mm 0 W/m2
22:04 52.3 °F /  11.3 °C 42.4 °F /  5.8 °C 30.1in /  1018.6hPa North 1.9mph /  3.1km/h 3.4mph /  5.5km/h 69% 0in /  0.0mm 0 W/m2
22:09 52.3 °F /  11.3 °C 42.8 °F /  6 °C 30.1in /  1018.6hPa North 1.3mph /  2.1km/h 3.6mph /  5.8km/h 69.9% 0in /  0.0mm 0 W/m2
22:14 52.3 °F /  11.3 °C 42.8 °F /  6 °C 30.1in /  1018.6hPa North 1.9mph /  3km/h 3.4mph /  5.5km/h 70% 0in /  0.0mm 0 W/m2
22:19 52.3 °F /  11.3 °C 42.8 °F /  6 °C 30.1in /  1018.6hPa NNE 2.4mph /  3.8km/h 3.1mph /  5km/h 70.4% 0in /  0.0mm 0 W/m2
22:24 51.8 °F /  11 °C 43.2 °F /  6.2 °C 30.1in /  1018.6hPa North 3.2mph /  5.2km/h 4.9mph /  7.9km/h 71.8% 0in /  0.0mm 0 W/m2
22:29 51.4 °F /  10.8 °C 43 °F /  6.1 °C 30.1in /  1018.6hPa NNW 2.8mph /  4.5km/h 4.5mph /  7.2km/h 72.4% 0in /  0.0mm 0 W/m2
22:34 51.3 °F /  10.7 °C 43.2 °F /  6.2 °C 30.1in /  1018.6hPa NNW 3.1mph /  5km/h 6mph /  9.7km/h 73% 0in /  0.0mm 0 W/m2
22:39 51.3 °F /  10.7 °C 43 °F /  6.1 °C 30.1in /  1018.6hPa NNW 4.8mph /  7.7km/h 7.2mph /  11.6km/h 73% 0in /  0.0mm 0 W/m2
22:44 51.1 °F /  10.6 °C 42.4 °F /  5.8 °C 30.1in /  1018.6hPa North 4.3mph /  7km/h 8.3mph /  13.4km/h 72% 0in /  0.0mm 0 W/m2
22:49 51.1 °F /  10.6 °C 42.4 °F /  5.8 °C 30.1in /  1018.6hPa NNW 4mph /  6.4km/h 8.3mph /  13.4km/h 72% 0in /  0.0mm 0 W/m2
22:54 51.1 °F /  10.6 °C 42.4 °F /  5.8 °C 30.1in /  1018.6hPa North 3.5mph /  5.7km/h 8.3mph /  13.4km/h 72% 0in /  0.0mm 0 W/m2
22:59 51.1 °F /  10.6 °C 42.4 °F /  5.8 °C 30.1in /  1018.6hPa North 4mph /  6.4km/h 6.7mph /  10.8km/h 72% 0in /  0.0mm 0 W/m2
23:04 51.1 °F /  10.6 °C 42.4 °F /  5.8 °C 30.1in /  1018.6hPa North 3mph /  4.8km/h 6.5mph /  10.5km/h 72% 0in /  0.0mm 0 W/m2
23:09 51.1 °F /  10.6 °C 42.4 °F /  5.8 °C 30.1in /  1018.6hPa North 2.4mph /  3.9km/h 4.7mph /  7.6km/h 72% 0in /  0.0mm 0 W/m2
23:14 51.1 °F /  10.6 °C 42.4 °F /  5.8 °C 30.1in /  1018.6hPa NNW 2.4mph /  3.9km/h 5.1mph /  8.2km/h 72.2% 0in /  0.0mm 0 W/m2
23:19 51.1 °F /  10.6 °C 42.6 °F /  5.9 °C 30.1in /  1018.6hPa North 3.7mph /  6km/h 6mph /  9.7km/h 72.4% 0in /  0.0mm 0 W/m2
23:24 51.3 °F /  10.7 °C 42.6 °F /  5.9 °C 30.1in /  1018.6hPa North 3.4mph /  5.5km/h 6mph /  9.7km/h 72% 0in /  0.0mm 0 W/m2
23:29 51.3 °F /  10.7 °C 42.6 °F /  5.9 °C 30.1in /  1018.6hPa NNW 3.2mph /  5.1km/h 6.3mph /  10.1km/h 72% 0in /  0.0mm 0 W/m2
23:34 51.3 °F /  10.7 °C 42.6 °F /  5.9 °C 30.1in /  1018.6hPa North 4mph /  6.4km/h 8.3mph /  13.4km/h 71.8% 0in /  0.0mm 0 W/m2
23:39 51.3 °F /  10.7 °C 42.3 °F /  5.7 °C 30.1in /  1018.6hPa NNW 4.9mph /  7.9km/h 8.9mph /  14.3km/h 71% 0in /  0.0mm 0 W/m2
23:44 51.3 °F /  10.7 °C 42.3 °F /  5.7 °C 30.1in /  1018.3hPa North 6.4mph /  10.3km/h 10.5mph /  16.9km/h 71% 0in /  0.0mm 0 W/m2
23:49 51.3 °F /  10.7 °C 42.3 °F /  5.7 °C 30.1in /  1018.3hPa North 6.3mph /  10.2km/h 9.4mph /  15.1km/h 71% 0in /  0.0mm 0 W/m2
23:54 51.3 °F /  10.7 °C 42.3 °F /  5.7 °C 30.1in /  1018.3hPa North 6.6mph /  10.7km/h 10.7mph /  17.2km/h 71% 0in /  0.0mm 0 W/m2
23:59 51.1 °F /  10.6 °C 41.9 °F /  5.5 °C 30.1in /  1018.6hPa North 5.8mph /  9.3km/h 10.7mph /  17.2km/h 70.4% 0in /  0.0mm 0 W/m2
Juneau County Weather
Compliments of Weather Underground - 2 mb